Time;durP1;ratioP1;P1;durP2;ratioP2;P2;SDS_P1;SDS_P2;PMS_P1;PMS_P2;Temp;Humidity;BMP_temperature;BMP_pressure;BME280_temperature;BME280_humidity;BME280_pressure;Samples;Min_cycle;Max_cycle;Signal;HPM_P1;HPM_P2
2023/01/01 00:02:15;;;;;;;527.17;368.33;;;9.20;92.60;;;;;;5040140;28;20202;-85
2023/01/01 00:04:42;;;;;;;503.80;353.20;;;9.10;93.10;;;;;;5040882;28;20661;-85
2023/01/01 00:07:09;;;;;;;616.80;456.35;;;9.10;93.20;;;;;;5039109;28;20713;-85
2023/01/01 00:12:21;;;;;;;585.17;422.95;;;9.10;93.10;;;;;;5036410;28;20225;-85
2023/01/01 00:14:48;;;;;;;619.95;471.98;;;9.20;92.80;;;;;;5042925;28;20201;-85
2023/01/01 00:17:15;;;;;;;548.10;409.70;;;9.20;93.20;;;;;;5039276;28;20205;-85
2023/01/01 00:19:42;;;;;;;429.30;308.73;;;9.20;93.00;;;;;;5043849;28;20198;-85
2023/01/01 00:22:09;;;;;;;513.03;327.67;;;9.30;92.90;;;;;;5050311;28;20194;-85
2023/01/01 00:24:37;;;;;;;447.35;299.75;;;9.30;92.10;;;;;;5036046;28;20214;-85
2023/01/01 00:27:04;;;;;;;270.33;170.98;;;9.30;91.80;;;;;;5042763;28;20202;-85
2023/01/01 00:29:32;;;;;;;293.33;186.35;;;9.20;91.80;;;;;;5035300;28;20214;-85
2023/01/01 00:31:59;;;;;;;210.20;140.35;;;9.20;91.30;;;;;;5038408;28;20249;-84
2023/01/01 00:34:26;;;;;;;203.07;134.65;;;9.20;91.30;;;;;;5039731;28;20662;-84
2023/01/01 00:36:52;;;;;;;203.18;133.82;;;9.20;91.20;;;;;;5047164;28;20220;-84
2023/01/01 00:39:19;;;;;;;189.30;126.68;;;9.30;91.20;;;;;;5037671;28;20201;-85
2023/01/01 00:41:47;;;;;;;162.38;109.15;;;9.20;91.30;;;;;;5039126;28;20202;-85
2023/01/01 00:44:14;;;;;;;196.20;129.15;;;9.20;91.30;;;;;;5038478;28;20475;-85
2023/01/01 00:46:41;;;;;;;171.48;114.97;;;9.10;91.70;;;;;;5051323;28;20206;-85
2023/01/01 00:49:08;;;;;;;175.15;117.53;;;9.10;91.90;;;;;;5045437;28;20208;-85
2023/01/01 00:51:35;;;;;;;167.70;112.00;;;9.00;91.90;;;;;;5039896;28;20233;-85
2023/01/01 00:54:02;;;;;;;182.55;123.35;;;8.90;92.00;;;;;;5042555;28;20201;-84
2023/01/01 00:56:28;;;;;;;174.60;111.22;;;8.90;92.40;;;;;;5041902;28;20210;-84
2023/01/01 00:58:57;;;;;;;179.38;120.10;;;8.80;92.30;;;;;;5036995;28;20209;-85
2023/01/01 01:01:23;;;;;;;172.13;117.65;;;8.80;92.50;;;;;;5042657;28;20203;-85
2023/01/01 01:03:50;;;;;;;166.18;112.75;;;8.70;92.90;;;;;;5043433;28;20563;-85
2023/01/01 01:06:18;;;;;;;182.40;119.95;;;8.60;92.70;;;;;;5039978;28;20219;-84
2023/01/01 01:08:46;;;;;;;175.25;116.15;;;8.50;92.70;;;;;;5041418;28;20208;-85
2023/01/01 01:11:15;;;;;;;192.55;130.73;;;8.50;93.10;;;;;;5041996;28;20606;-85
2023/01/01 01:13:43;;;;;;;177.77;111.68;;;8.50;93.10;;;;;;5034368;28;20252;-85
2023/01/01 01:16:13;;;;;;;167.43;109.18;;;8.40;93.40;;;;;;5037557;28;20207;-85
2023/01/01 01:18:40;;;;;;;172.68;114.80;;;8.40;93.30;;;;;;5041739;28;20198;-85
2023/01/01 01:21:08;;;;;;;205.90;137.38;;;8.50;93.10;;;;;;5041138;28;20669;-85
2023/01/01 01:23:35;;;;;;;159.52;103.35;;;8.40;93.10;;;;;;5039988;28;20268;-84
2023/01/01 01:26:10;;;;;;;170.07;112.22;;;8.50;92.90;;;;;;5041224;28;20242;-85
2023/01/01 01:28:38;;;;;;;190.90;129.27;;;8.40;92.80;;;;;;5038375;28;20209;-85
2023/01/01 01:31:05;;;;;;;183.88;124.32;;;8.40;93.30;;;;;;5038947;28;20214;-84
2023/01/01 01:33:33;;;;;;;174.65;116.40;;;8.30;93.50;;;;;;5043797;28;20206;-85
2023/01/01 01:36:00;;;;;;;174.43;110.38;;;8.30;93.50;;;;;;5048006;28;20678;-85
2023/01/01 01:38:26;;;;;;;174.82;116.80;;;8.20;93.60;;;;;;5040920;28;20212;-86
2023/01/01 01:40:53;;;;;;;178.68;122.43;;;8.30;93.40;;;;;;5049956;28;20209;-85
2023/01/01 01:43:23;;;;;;;123.85;85.82;;;8.20;93.10;;;;;;5042141;28;20202;-85
2023/01/01 01:45:52;;;;;;;90.55;61.95;;;8.30;92.70;;;;;;5041330;28;20248;-84
2023/01/01 01:48:20;;;;;;;117.60;77.25;;;8.30;92.20;;;;;;5044815;28;20206;-85
2023/01/01 01:50:51;;;;;;;166.30;109.55;;;8.30;92.00;;;;;;5042713;28;20221;-85
2023/01/01 01:53:22;;;;;;;165.25;109.53;;;8.30;92.30;;;;;;5043739;28;20233;-85
2023/01/01 01:55:52;;;;;;;163.38;112.50;;;8.20;93.00;;;;;;5049411;28;20197;-84
2023/01/01 01:58:19;;;;;;;153.02;105.28;;;8.20;93.10;;;;;;5040129;28;20203;-85
2023/01/01 02:00:46;;;;;;;156.32;105.10;;;8.10;93.50;;;;;;5042109;28;20205;-84
2023/01/01 02:03:17;;;;;;;145.80;103.30;;;8.10;93.20;;;;;;5040767;28;20195;-85
2023/01/01 02:05:45;;;;;;;158.80;106.15;;;8.00;93.30;;;;;;5044725;28;20210;-85
2023/01/01 02:08:14;;;;;;;174.80;113.50;;;8.00;93.60;;;;;;5042609;28;20196;-85
2023/01/01 02:10:41;;;;;;;125.35;85.65;;;8.00;93.70;;;;;;5042447;28;20533;-85
2023/01/01 02:13:08;;;;;;;118.97;80.55;;;8.00;92.80;;;;;;5046622;28;20197;-84
2023/01/01 02:15:39;;;;;;;153.63;103.13;;;8.00;92.80;;;;;;5044456;28;20229;-85
2023/01/01 02:18:10;;;;;;;88.38;60.22;;;8.00;93.00;;;;;;5044737;28;20273;-85
2023/01/01 02:20:46;;;;;;;139.98;92.50;;;8.00;92.70;;;;;;5044703;28;20217;-85
2023/01/01 02:23:55;;;;;;;116.10;77.63;;;8.00;92.60;;;;;;5042090;28;20674;-85
2023/01/01 02:26:41;;;;;;;124.60;81.50;;;8.00;92.10;;;;;;5042448;28;20194;-85
2023/01/01 02:29:19;;;;;;;73.22;48.28;;;8.10;91.70;;;;;;5042486;28;20202;-85
2023/01/01 02:31:50;;;;;;;96.57;65.32;;;8.10;91.80;;;;;;5043736;28;20217;-85
2023/01/01 02:34:23;;;;;;;88.95;63.67;;;8.00;91.80;;;;;;5042787;28;20202;-84
2023/01/01 02:36:54;;;;;;;124.65;82.68;;;8.00;92.00;;;;;;5046667;28;20577;-85
2023/01/01 02:39:24;;;;;;;57.10;36.90;;;8.00;92.40;;;;;;5044248;28;20194;-85
2023/01/01 02:41:54;;;;;;;84.18;58.72;;;8.10;91.10;;;;;;5043204;28;20213;-85
2023/01/01 02:44:25;;;;;;;95.90;63.15;;;8.10;91.30;;;;;;5043015;28;20204;-84
2023/01/01 02:46:52;;;;;;;82.60;56.17;;;8.10;91.40;;;;;;5046251;28;20450;-85
2023/01/01 02:49:18;;;;;;;96.85;69.40;;;8.10;91.90;;;;;;5048542;28;20191;-85
2023/01/01 02:51:56;;;;;;;87.25;55.55;;;8.10;91.80;;;;;;5044323;28;20222;-85
2023/01/01 02:54:32;;;;;;;44.28;31.05;;;8.10;91.90;;;;;;5032979;28;20220;-84
2023/01/01 02:57:05;;;;;;;70.03;47.30;;;8.20;91.30;;;;;;5045291;28;20198;-85
2023/01/01 03:02:36;;;;;;;109.07;69.32;;;8.20;91.40;;;;;;5043245;28;20581;-85
2023/01/01 03:05:09;;;;;;;116.00;73.10;;;8.20;91.80;;;;;;5043878;28;20233;-85
2023/01/01 03:07:41;;;;;;;75.63;51.55;;;8.30;91.80;;;;;;5044398;28;20284;-85
2023/01/01 03:10:15;;;;;;;67.85;44.22;;;8.30;91.70;;;;;;5044314;28;20284;-85
2023/01/01 03:12:46;;;;;;;46.38;33.33;;;8.30;91.30;;;;;;5040369;28;20218;-85
2023/01/01 03:15:24;;;;;;;104.90;68.10;;;8.30;91.10;;;;;;5040415;28;20202;-85
2023/01/01 03:17:57;;;;;;;68.65;48.45;;;8.30;91.50;;;;;;5047611;28;20189;-85
2023/01/01 03:20:28;;;;;;;87.32;57.35;;;8.30;91.50;;;;;;5040741;28;20206;-85
2023/01/01 03:22:58;;;;;;;23.02;17.20;;;8.30;91.50;;;;;;5043733;28;20218;-85
2023/01/01 03:25:29;;;;;;;18.02;12.98;;;8.30;90.90;;;;;;5044078;28;20211;-85
2023/01/01 03:28:00;;;;;;;75.07;47.53;;;8.30;90.10;;;;;;5041578;28;20194;-85
2023/01/01 03:30:32;;;;;;;55.85;37.45;;;8.30;90.30;;;;;;5042846;28;20210;-85
2023/01/01 03:33:03;;;;;;;22.90;16.83;;;8.30;90.30;;;;;;5041210;28;20245;-85
2023/01/01 03:35:37;;;;;;;67.13;42.10;;;8.30;89.00;;;;;;5045510;28;20198;-85
2023/01/01 03:38:06;;;;;;;30.10;22.15;;;8.30;89.70;;;;;;5035739;28;20201;-84
2023/01/01 03:40:37;;;;;;;22.38;16.58;;;8.20;90.30;;;;;;5043741;28;20202;-85
2023/01/01 03:43:08;;;;;;;50.70;31.50;;;8.10;90.30;;;;;;5043245;28;20549;-85
2023/01/01 03:45:40;;;;;;;52.75;35.13;;;8.10;90.30;;;;;;5042083;28;20197;-84
2023/01/01 03:48:07;;;;;;;20.20;14.82;;;8.10;90.60;;;;;;5039833;28;20630;-85
2023/01/01 03:50:44;;;;;;;25.05;17.05;;;8.10;90.30;;;;;;5038153;28;20212;-85
2023/01/01 03:53:21;;;;;;;20.85;16.27;;;8.20;89.30;;;;;;5040151;28;20263;-84
2023/01/01 03:55:55;;;;;;;30.15;20.92;;;8.20;90.10;;;;;;5044164;28;20205;-85
2023/01/01 03:58:30;;;;;;;23.95;16.90;;;8.00;90.30;;;;;;5035152;28;20680;-85
2023/01/01 04:01:03;;;;;;;31.90;21.55;;;7.90;90.20;;;;;;5043574;28;20198;-85
2023/01/01 04:03:32;;;;;;;32.03;21.60;;;7.90;90.80;;;;;;5042464;28;20569;-84
2023/01/01 04:06:01;;;;;;;35.80;23.10;;;7.90;91.20;;;;;;5041838;28;20646;-84
2023/01/01 04:08:28;;;;;;;24.98;19.38;;;7.90;91.30;;;;;;5043179;28;20205;-85
2023/01/01 04:11:01;;;;;;;29.70;20.67;;;7.90;91.20;;;;;;5045661;28;20308;-85
2023/01/01 04:13:47;;;;;;;54.75;34.72;;;7.90;91.20;;;;;;5034477;28;20207;-85
2023/01/01 04:16:15;;;;;;;28.70;17.98;;;7.90;91.40;;;;;;5042106;28;20198;-85
2023/01/01 04:18:42;;;;;;;23.77;17.23;;;7.80;91.90;;;;;;5034974;28;20207;-85
2023/01/01 04:21:09;;;;;;;15.57;12.15;;;7.80;92.00;;;;;;5047204;28;20209;-85
2023/01/01 04:23:36;;;;;;;13.60;10.32;;;7.80;91.40;;;;;;5040357;28;20233;-85
2023/01/01 04:26:02;;;;;;;24.48;16.83;;;7.80;91.10;;;;;;5044419;28;20650;-84
2023/01/01 04:28:29;;;;;;;36.97;23.20;;;7.90;91.00;;;;;;5045750;28;20202;-85
2023/01/01 04:30:56;;;;;;;23.08;15.45;;;7.80;91.60;;;;;;5043144;28;20205;-85
2023/01/01 04:33:25;;;;;;;38.45;25.67;;;7.80;92.10;;;;;;5040656;28;20214;-85
2023/01/01 04:35:51;;;;;;;37.50;24.15;;;7.70;92.50;;;;;;5040293;28;20263;-85
2023/01/01 04:38:18;;;;;;;28.55;19.27;;;7.70;92.80;;;;;;5042246;28;20208;-85
2023/01/01 04:40:46;;;;;;;29.70;20.58;;;7.70;92.80;;;;;;5043406;28;20570;-84
2023/01/01 04:43:13;;;;;;;28.92;19.80;;;7.70;92.80;;;;;;5043847;28;20256;-85
2023/01/01 04:45:39;;;;;;;19.27;14.68;;;7.60;92.80;;;;;;5040098;28;20198;-85
2023/01/01 04:48:07;;;;;;;29.13;20.08;;;7.50;93.10;;;;;;5041174;28;20654;-85
2023/01/01 04:50:35;;;;;;;16.05;11.82;;;7.40;93.50;;;;;;5038779;28;20206;-85
2023/01/01 04:53:01;;;;;;;24.65;16.63;;;7.40;93.10;;;;;;5041090;28;20226;-85
2023/01/01 04:55:28;;;;;;;21.73;13.85;;;7.50;92.80;;;;;;5043413;28;20217;-85
2023/01/01 04:57:55;;;;;;;25.45;18.13;;;7.40;93.50;;;;;;5038182;28;20697;-85
2023/01/01 05:00:22;;;;;;;13.98;10.75;;;7.30;93.80;;;;;;5037660;28;20202;-85
2023/01/01 05:02:49;;;;;;;17.05;11.85;;;7.30;93.30;;;;;;5037971;28;20224;-85
2023/01/01 05:05:17;;;;;;;25.02;14.95;;;7.40;92.90;;;;;;5043590;28;20194;-85
2023/01/01 05:07:46;;;;;;;28.55;19.95;;;7.30;93.00;;;;;;5044539;28;21017;-85
2023/01/01 05:10:13;;;;;;;22.55;15.73;;;7.30;93.50;;;;;;5043508;28;20245;-84
2023/01/01 05:12:39;;;;;;;25.05;17.15;;;7.30;93.80;;;;;;5050392;28;20228;-85
2023/01/01 05:15:07;;;;;;;19.48;11.65;;;7.20;93.80;;;;;;5049649;28;20201;-84
2023/01/01 05:17:34;;;;;;;15.48;10.48;;;7.10;93.90;;;;;;5046628;28;20213;-84
2023/01/01 05:20:02;;;;;;;37.03;22.33;;;7.10;94.10;;;;;;5045038;28;20216;-84
2023/01/01 05:22:29;;;;;;;13.60;8.70;;;7.10;94.20;;;;;;5045290;28;20291;-85
2023/01/01 05:24:57;;;;;;;14.45;10.45;;;7.20;93.70;;;;;;5052335;28;20224;-85
2023/01/01 05:27:24;;;;;;;18.10;12.48;;;7.20;93.30;;;;;;5042189;28;20205;-85
2023/01/01 05:29:51;;;;;;;14.02;9.65;;;7.30;92.90;;;;;;5042952;28;20198;-85
2023/01/01 05:32:17;;;;;;;19.63;14.20;;;7.30;92.90;;;;;;5048004;28;20225;-85
2023/01/01 05:34:44;;;;;;;22.85;16.05;;;7.30;93.20;;;;;;5041353;28;20646;-85
2023/01/01 05:37:11;;;;;;;17.45;11.23;;;7.20;93.60;;;;;;5048181;28;20204;-85
2023/01/01 05:39:38;;;;;;;17.13;11.13;;;7.20;93.70;;;;;;5043762;28;20647;-85
2023/01/01 05:42:06;;;;;;;16.60;11.63;;;7.20;94.10;;;;;;5050384;28;20209;-85
2023/01/01 05:44:33;;;;;;;20.02;14.70;;;7.20;93.60;;;;;;5046159;28;20207;-85
2023/01/01 05:47:03;;;;;;;13.30;10.00;;;7.20;93.60;;;;;;5039489;28;20673;-85
2023/01/01 05:49:29;;;;;;;16.67;11.65;;;7.10;93.90;;;;;;5041232;28;20678;-84
2023/01/01 05:51:56;;;;;;;19.92;13.48;;;7.10;94.00;;;;;;5041038;28;20693;-85
2023/01/01 05:54:23;;;;;;;20.42;12.35;;;7.00;94.20;;;;;;5037871;28;20618;-85
2023/01/01 05:56:50;;;;;;;15.38;10.98;;;7.10;94.10;;;;;;5043346;28;20201;-85
2023/01/01 05:59:18;;;;;;;14.77;11.07;;;7.00;94.00;;;;;;5038073;28;20209;-84
2023/01/01 06:01:45;;;;;;;13.75;9.65;;;7.00;93.70;;;;;;5043610;28;20199;-84
2023/01/01 06:04:12;;;;;;;13.40;9.18;;;7.00;94.10;;;;;;5045239;28;20201;-84
2023/01/01 06:06:39;;;;;;;12.73;10.13;;;6.90;94.20;;;;;;5040190;28;20210;-85
2023/01/01 06:09:06;;;;;;;17.77;11.85;;;6.90;94.30;;;;;;5048625;28;20213;-85
2023/01/01 06:11:33;;;;;;;17.38;11.38;;;6.90;94.30;;;;;;5046063;28;20199;-85
2023/01/01 06:14:00;;;;;;;15.80;10.80;;;7.00;94.20;;;;;;5047317;28;20198;-84
2023/01/01 06:16:31;;;;;;;17.88;12.52;;;6.90;94.20;;;;;;5044794;28;20197;-85
2023/01/01 06:18:58;;;;;;;14.95;10.10;;;7.00;94.20;;;;;;5046716;28;20197;-85
2023/01/01 06:21:27;;;;;;;12.70;9.52;;;7.00;94.20;;;;;;5046485;28;20224;-85
2023/01/01 06:23:55;;;;;;;10.32;7.43;;;7.00;94.10;;;;;;5041664;28;20229;-85
2023/01/01 06:26:24;;;;;;;10.00;5.70;;;7.00;94.20;;;;;;5044112;28;20562;-85
2023/01/01 06:28:51;;;;;;;11.73;8.52;;;7.00;94.20;;;;;;5048321;28;20653;-85
2023/01/01 06:31:20;;;;;;;6.55;5.03;;;7.10;93.40;;;;;;5044909;28;20282;-84
2023/01/01 06:33:49;;;;;;;12.02;8.73;;;7.30;92.30;;;;;;5044627;28;20223;-85
2023/01/01 06:36:18;;;;;;;7.10;5.30;;;7.40;92.10;;;;;;5043221;28;20229;-85
2023/01/01 06:38:47;;;;;;;7.45;5.22;;;7.50;91.40;;;;;;5043855;28;20228;-85
2023/01/01 06:41:16;;;;;;;10.73;7.03;;;7.60;91.10;;;;;;5037794;28;20198;-85
2023/01/01 06:43:43;;;;;;;4.65;3.47;;;7.70;90.70;;;;;;5041596;28;20205;-84
2023/01/01 06:46:16;;;;;;;7.93;5.35;;;7.70;90.20;;;;;;5046722;28;20662;-85
2023/01/01 06:48:43;;;;;;;6.80;3.88;;;7.80;90.20;;;;;;5040759;28;20189;-85
2023/01/01 06:51:12;;;;;;;5.25;3.22;;;7.80;90.20;;;;;;5043490;28;20207;-85
2023/01/01 06:53:39;;;;;;;5.60;3.80;;;7.80;89.50;;;;;;5045128;28;20601;-85
2023/01/01 06:56:07;;;;;;;3.97;3.08;;;7.80;89.00;;;;;;5040790;28;20203;-85
2023/01/01 06:58:34;;;;;;;8.88;6.20;;;7.80;88.10;;;;;;5043612;28;20206;-85
2023/01/01 07:01:05;;;;;;;5.80;4.50;;;7.80;89.10;;;;;;5048563;28;20206;-84
2023/01/01 07:03:31;;;;;;;9.55;7.40;;;7.70;89.50;;;;;;5037470;28;20681;-85
2023/01/01 07:05:58;;;;;;;6.53;4.50;;;7.70;89.80;;;;;;5044194;28;20194;-84
2023/01/01 07:08:27;;;;;;;5.18;3.47;;;7.70;90.20;;;;;;5042181;28;20198;-85
2023/01/01 07:10:56;;;;;;;5.07;3.97;;;7.70;89.30;;;;;;5043285;28;20229;-85
2023/01/01 07:13:23;;;;;;;6.22;4.85;;;7.60;88.30;;;;;;5044534;28;20226;-84
2023/01/01 07:15:49;;;;;;;5.43;4.57;;;7.70;90.20;;;;;;5044423;28;20213;-85
2023/01/01 07:18:16;;;;;;;8.35;6.13;;;7.60;90.20;;;;;;5036882;28;20195;-84
2023/01/01 07:20:43;;;;;;;10.60;7.90;;;7.60;90.40;;;;;;5040213;28;20197;-85
2023/01/01 07:23:11;;;;;;;6.82;4.82;;;7.60;90.30;;;;;;5044325;28;20230;-85
2023/01/01 07:25:41;;;;;;;6.97;5.22;;;7.60;90.90;;;;;;5043706;28;20232;-84
2023/01/01 07:28:08;;;;;;;4.65;4.00;;;7.50;90.70;;;;;;5042279;28;20204;-84
2023/01/01 07:30:34;;;;;;;6.50;5.00;;;7.60;90.70;;;;;;5042910;28;20195;-85
2023/01/01 07:33:01;;;;;;;4.93;3.83;;;7.50;90.60;;;;;;5047889;28;20224;-85
2023/01/01 07:35:28;;;;;;;4.93;4.00;;;7.60;90.40;;;;;;5035600;28;20199;-85
2023/01/01 07:37:55;;;;;;;4.55;3.60;;;7.50;91.10;;;;;;5041003;28;20206;-85
2023/01/01 07:40:22;;;;;;;7.82;5.05;;;7.60;91.50;;;;;;5039896;28;20213;-84
2023/01/01 07:42:50;;;;;;;8.00;5.40;;;7.60;91.10;;;;;;5043281;28;20210;-84
2023/01/01 07:45:17;;;;;;;5.47;4.15;;;7.60;91.50;;;;;;5041305;28;21889;-85
2023/01/01 07:47:46;;;;;;;7.07;4.55;;;7.60;91.50;;;;;;5038527;28;20564;-85
2023/01/01 07:50:16;;;;;;;6.03;4.95;;;7.60;91.70;;;;;;5043950;28;20194;-85
2023/01/01 07:52:43;;;;;;;3.97;3.20;;;7.50;92.20;;;;;;5045385;28;20631;-85
2023/01/01 07:55:13;;;;;;;4.40;3.38;;;7.60;92.10;;;;;;5042892;28;20208;-85
2023/01/01 07:57:39;;;;;;;4.47;3.90;;;7.70;91.50;;;;;;5038459;28;20264;-85
2023/01/01 08:00:10;;;;;;;11.98;6.80;;;7.80;91.30;;;;;;5038863;28;20208;-85
2023/01/01 08:02:37;;;;;;;5.35;4.30;;;7.90;91.20;;;;;;5043460;28;20764;-85
2023/01/01 08:05:04;;;;;;;5.93;4.40;;;8.00;90.50;;;;;;5042197;28;20220;-85
2023/01/01 08:07:31;;;;;;;5.05;3.30;;;8.20;90.30;;;;;;5038552;28;20197;-84
2023/01/01 08:09:58;;;;;;;53.10;34.13;;;8.30;90.30;;;;;;5040797;28;20223;-85
2023/01/01 08:12:26;;;;;;;36.97;22.30;;;8.80;93.10;;;;;;5040815;28;20565;-85
2023/01/01 08:14:52;;;;;;;13.43;9.38;;;8.90;91.60;;;;;;5043156;28;20202;-85
2023/01/01 08:17:21;;;;;;;18.27;12.70;;;8.90;90.40;;;;;;5040759;28;20201;-85
2023/01/01 08:19:49;;;;;;;16.25;10.50;;;9.00;90.50;;;;;;5040023;28;20206;-84
2023/01/01 08:22:16;;;;;;;17.65;10.75;;;9.10;90.30;;;;;;5035154;28;20575;-85
2023/01/01 08:24:43;;;;;;;14.30;8.80;;;9.30;88.60;;;;;;5041241;28;20202;-85
2023/01/01 08:27:13;;;;;;;11.52;7.38;;;9.40;87.50;;;;;;5036580;28;20297;-85
2023/01/01 08:29:39;;;;;;;7.22;5.45;;;9.50;86.00;;;;;;5046898;28;20198;-85
2023/01/01 08:32:06;;;;;;;9.60;7.57;;;9.70;82.30;;;;;;5043570;28;20656;-85
2023/01/01 08:34:35;;;;;;;14.60;10.38;;;9.90;81.30;;;;;;5044967;28;20226;-85
2023/01/01 08:37:02;;;;;;;9.85;6.05;;;10.20;76.60;;;;;;5043729;28;20572;-85
2023/01/01 08:39:29;;;;;;;7.55;5.70;;;10.30;73.30;;;;;;5042830;28;20202;-85
2023/01/01 08:41:56;;;;;;;16.27;11.07;;;10.50;72.30;;;;;;5041262;28;20202;-85
2023/01/01 08:44:23;;;;;;;13.35;9.82;;;10.90;67.00;;;;;;5037836;28;20242;-85
2023/01/01 08:46:52;;;;;;;3.22;2.85;;;11.20;64.70;;;;;;5039245;28;20257;-85
2023/01/01 08:49:19;;;;;;;14.07;7.90;;;11.40;60.80;;;;;;5043292;28;20567;-85
2023/01/01 08:51:53;;;;;;;5.75;3.67;;;11.60;58.40;;;;;;5041753;28;20199;-85
2023/01/01 08:54:20;;;;;;;5.65;3.80;;;11.90;53.80;;;;;;5045348;28;20224;-85
2023/01/01 08:56:46;;;;;;;4.90;2.22;;;12.30;49.00;;;;;;5042372;28;20202;-85
2023/01/01 08:59:13;;;;;;;2.42;2.22;;;12.90;49.40;;;;;;5044431;28;20208;-85
2023/01/01 09:01:40;;;;;;;11.32;9.57;;;13.80;45.70;;;;;;5035127;28;20553;-86
2023/01/01 09:04:11;;;;;;;4.55;3.38;;;14.90;34.40;;;;;;5044671;28;20202;-85
2023/01/01 09:06:38;;;;;;;4.53;3.63;;;15.60;28.40;;;;;;5038207;28;20936;-85
2023/01/01 09:09:06;;;;;;;5.10;4.22;;;16.00;29.30;;;;;;5035977;28;20257;-85
2023/01/01 09:11:33;;;;;;;14.10;11.65;;;16.30;28.30;;;;;;5040775;28;20202;-85
2023/01/01 09:14:00;;;;;;;8.75;6.72;;;16.50;26.90;;;;;;5042386;28;20226;-85
2023/01/01 09:16:26;;;;;;;5.88;5.28;;;16.60;27.40;;;;;;5044814;28;20232;-85
2023/01/01 09:18:53;;;;;;;19.45;17.30;;;16.80;27.10;;;;;;5038301;28;20593;-83
2023/01/01 09:21:20;;;;;;;5.55;4.40;;;17.20;25.50;;;;;;5038562;28;20205;-82
2023/01/01 09:23:47;;;;;;;6.68;5.85;;;17.60;24.10;;;;;;5037595;28;20226;-83
2023/01/01 09:26:15;;;;;;;2.40;2.20;;;18.20;22.40;;;;;;5040547;28;20202;-83
2023/01/01 09:28:42;;;;;;;10.80;9.50;;;18.20;19.20;;;;;;5043483;28;20202;-83
2023/01/01 09:31:09;;;;;;;5.15;3.72;;;18.10;21.80;;;;;;5040279;28;20208;-83
2023/01/01 09:33:36;;;;;;;4.88;4.20;;;18.10;21.50;;;;;;5038363;28;20215;-83
2023/01/01 09:36:14;;;;;;;8.98;7.68;;;18.10;21.20;;;;;;5038640;28;20661;-83
2023/01/01 09:38:40;;;;;;;4.38;3.97;;;18.10;21.60;;;;;;5039865;28;20209;-83
2023/01/01 09:41:19;;;;;;;3.40;2.97;;;18.30;20.30;;;;;;5039231;28;20205;-83
2023/01/01 09:43:54;;;;;;;5.38;3.47;;;18.30;22.10;;;;;;5040328;28;20242;-83
2023/01/01 09:46:23;;;;;;;8.27;7.43;;;18.40;21.50;;;;;;5035631;28;20205;-83
2023/01/01 09:48:56;;;;;;;4.28;2.50;;;18.50;21.40;;;;;;5041216;28;20190;-83
2023/01/01 09:51:26;;;;;;;5.07;2.33;;;18.60;21.30;;;;;;5042382;28;20202;-83
2023/01/01 09:53:59;;;;;;;3.35;3.05;;;18.70;22.80;;;;;;5037475;28;20222;-83
2023/01/01 09:56:30;;;;;;;3.90;3.60;;;18.70;22.20;;;;;;5040138;28;20230;-83
2023/01/01 09:58:58;;;;;;;3.90;3.50;;;18.60;21.30;;;;;;5047662;28;20209;-83
2023/01/01 10:01:35;;;;;;;3.33;2.78;;;18.40;20.80;;;;;;5042158;28;20198;-83
2023/01/01 10:04:15;;;;;;;3.70;3.10;;;18.10;22.90;;;;;;5043791;28;20201;-83
2023/01/01 10:06:47;;;;;;;4.70;3.30;;;17.90;22.90;;;;;;5039925;28;20206;-83
2023/01/01 10:09:24;;;;;;;3.85;2.88;;;17.60;21.60;;;;;;5043042;28;20726;-83
2023/01/01 10:11:59;;;;;;;3.20;2.90;;;17.50;22.40;;;;;;5045555;28;20205;-83
2023/01/01 10:14:31;;;;;;;4.28;3.78;;;17.30;23.00;;;;;;5040204;28;20652;-83
2023/01/01 10:17:01;;;;;;;4.45;4.05;;;17.10;22.90;;;;;;5045396;28;20213;-83
2023/01/01 10:19:35;;;;;;;2.20;2.00;;;17.00;22.30;;;;;;5045599;28;20194;-85
2023/01/01 10:22:07;;;;;;;2.10;2.00;;;17.00;22.90;;;;;;5043311;28;20206;-84
2023/01/01 10:24:44;;;;;;;5.20;3.75;;;17.10;22.90;;;;;;5043324;28;20637;-83
2023/01/01 10:27:26;;;;;;;3.33;2.80;;;17.10;23.40;;;;;;5040773;28;20571;-84
2023/01/01 10:29:53;;;;;;;3.42;2.65;;;17.20;24.10;;;;;;5043362;28;20206;-84
2023/01/01 10:32:29;;;;;;;5.13;4.47;;;17.10;23.70;;;;;;5048965;28;20198;-83
2023/01/01 10:34:57;;;;;;;5.28;4.35;;;17.10;23.90;;;;;;5040836;28;20693;-84
2023/01/01 10:37:34;;;;;;;2.80;2.55;;;17.00;23.80;;;;;;5033069;28;20765;-84
2023/01/01 10:40:06;;;;;;;3.00;2.70;;;17.00;22.60;;;;;;5039672;28;20213;-84
2023/01/01 10:42:34;;;;;;;1.92;1.80;;;17.30;21.90;;;;;;5045002;28;20666;-84
2023/01/01 10:45:04;;;;;;;2.30;2.10;;;17.40;21.70;;;;;;5045680;28;20202;-84
2023/01/01 10:47:31;;;;;;;6.22;4.03;;;17.70;21.90;;;;;;5045618;28;20195;-84
2023/01/01 10:50:00;;;;;;;2.45;2.25;;;17.90;22.20;;;;;;5043892;28;20202;-84
2023/01/01 10:52:30;;;;;;;2.53;1.85;;;18.10;21.20;;;;;;5036083;28;20225;-84
2023/01/01 10:54:58;;;;;;;9.20;5.97;;;18.40;20.10;;;;;;5044348;28;20232;-84
2023/01/01 10:57:39;;;;;;;5.63;4.57;;;18.70;21.60;;;;;;5038461;28;20198;-84
2023/01/01 11:00:21;;;;;;;6.45;5.78;;;18.90;18.40;;;;;;5037174;28;20638;-84
2023/01/01 11:03:05;;;;;;;8.15;6.28;;;19.00;19.70;;;;;;5039889;28;20197;-84
2023/01/01 11:05:31;;;;;;;5.00;4.18;;;19.10;19.40;;;;;;5040356;28;20697;-84
2023/01/01 11:07:58;;;;;;;3.35;2.83;;;19.00;19.30;;;;;;5043757;28;20210;-84
2023/01/01 11:10:27;;;;;;;4.80;2.53;;;18.80;19.50;;;;;;5033925;28;20238;-84
2023/01/01 11:12:55;;;;;;;2.60;2.28;;;18.50;18.90;;;;;;5045674;28;20204;-84
2023/01/01 11:15:31;;;;;;;2.20;2.00;;;18.20;19.50;;;;;;5040010;28;20685;-84
2023/01/01 11:18:05;;;;;;;3.60;2.45;;;18.00;20.30;;;;;;5039197;28;20288;-84
2023/01/01 11:20:33;;;;;;;2.60;2.25;;;17.70;21.60;;;;;;5047346;28;20210;-84
2023/01/01 11:23:19;;;;;;;2.60;2.40;;;17.50;21.60;;;;;;5046976;28;20214;-84
2023/01/01 11:26:01;;;;;;;2.50;2.30;;;17.50;21.30;;;;;;5040828;28;20201;-84
2023/01/01 11:28:33;;;;;;;2.58;2.38;;;17.40;20.80;;;;;;5046592;28;20221;-84
2023/01/01 11:31:14;;;;;;;2.65;2.35;;;17.30;20.90;;;;;;5044010;28;20222;-86
2023/01/01 11:33:46;;;;;;;2.40;2.20;;;17.20;22.00;;;;;;5047264;28;20233;-86
2023/01/01 11:36:21;;;;;;;4.50;2.65;;;17.10;21.30;;;;;;5045111;28;20209;-86
2023/01/01 11:38:49;;;;;;;2.13;1.83;;;17.00;22.20;;;;;;5042712;28;20205;-86
2023/01/01 11:41:16;;;;;;;2.65;2.45;;;16.90;21.50;;;;;;5039718;28;20201;-87
2023/01/01 11:43:46;;;;;;;3.10;2.13;;;16.80;22.60;;;;;;5044685;28;20200;-86
2023/01/01 11:46:22;;;;;;;2.22;2.03;;;16.70;22.40;;;;;;5045065;28;20202;-86
2023/01/01 11:48:49;;;;;;;2.42;2.20;;;16.80;22.60;;;;;;5040269;28;20204;-86
2023/01/01 11:51:29;;;;;;;2.97;2.50;;;16.80;21.90;;;;;;5043607;28;20642;-86
2023/01/01 11:54:22;;;;;;;2.72;2.40;;;16.80;22.80;;;;;;5038947;28;20545;-87
2023/01/01 11:56:53;;;;;;;2.67;2.05;;;16.80;23.10;;;;;;5042411;28;20201;-86
2023/01/01 11:59:26;;;;;;;2.63;2.40;;;16.70;23.30;;;;;;5045312;28;20677;-86
2023/01/01 12:01:58;;;;;;;2.60;2.40;;;16.70;23.50;;;;;;5042202;28;20209;-87
2023/01/01 12:04:31;;;;;;;3.03;1.98;;;16.70;23.30;;;;;;5046308;28;20198;-87
2023/01/01 12:07:03;;;;;;;2.55;2.05;;;16.70;23.50;;;;;;5038717;28;20212;-86
2023/01/01 12:09:41;;;;;;;2.53;2.15;;;16.70;23.40;;;;;;5045851;28;20221;-86
2023/01/01 12:12:13;;;;;;;2.28;2.08;;;16.70;23.70;;;;;;5042553;28;20216;-86
2023/01/01 12:14:47;;;;;;;2.35;2.15;;;16.80;24.80;;;;;;5042280;28;20237;-87
2023/01/01 12:17:22;;;;;;;2.42;2.00;;;16.80;23.60;;;;;;5037808;28;20210;-86
2023/01/01 12:19:59;;;;;;;2.50;2.28;;;16.80;23.00;;;;;;5044991;28;20201;-86
2023/01/01 12:22:26;;;;;;;2.13;1.92;;;16.80;23.10;;;;;;5042680;28;20218;-86
2023/01/01 12:24:54;;;;;;;2.80;2.10;;;16.70;23.50;;;;;;5041470;28;20272;-86
2023/01/01 12:27:41;;;;;;;2.42;2.00;;;16.70;23.30;;;;;;5043928;28;20206;-86
2023/01/01 12:30:20;;;;;;;2.05;1.85;;;16.70;23.00;;;;;;5039751;28;20774;-86
2023/01/01 12:33:17;;;;;;;2.95;2.22;;;16.80;23.20;;;;;;5046128;28;20571;-87
2023/01/01 12:35:58;;;;;;;3.15;2.20;;;16.70;23.50;;;;;;5040363;28;20222;-86
2023/01/01 12:38:43;;;;;;;2.92;1.90;;;16.70;23.50;;;;;;5037640;28;20201;-86
2023/01/01 12:41:18;;;;;;;2.70;2.00;;;16.70;23.50;;;;;;5038129;28;20343;-86
2023/01/01 12:43:55;;;;;;;3.53;1.90;;;16.60;23.80;;;;;;5041495;28;20197;-86
2023/01/01 12:46:42;;;;;;;2.20;1.83;;;16.60;24.40;;;;;;5038255;28;20584;-87
2023/01/01 12:49:34;;;;;;;1.70;1.60;;;16.60;24.30;;;;;;5041764;28;20197;-86
2023/01/01 12:52:14;;;;;;;11.30;9.75;;;16.60;23.90;;;;;;5040128;28;20749;-86
2023/01/01 12:55:35;;;;;;;4.88;3.00;;;16.60;24.10;;;;;;5037589;28;20229;-86
2023/01/01 12:58:07;;;;;;;2.67;2.47;;;16.70;23.90;;;;;;5036599;28;20203;-86
2023/01/01 13:00:37;;;;;;;4.35;2.22;;;16.60;25.20;;;;;;5037451;28;20639;-86